createdAt,value
2018-03-26T00:00:18.627Z,0
2018-03-26T00:01:18.867Z,0
2018-03-26T00:02:19.147Z,0
2018-03-26T00:03:19.138Z,0
2018-03-26T00:04:19.185Z,0
2018-03-26T00:05:18.658Z,0
2018-03-26T00:06:18.840Z,0
2018-03-26T00:07:18.507Z,0
2018-03-26T00:08:18.749Z,0
2018-03-26T00:09:18.997Z,0
2018-03-26T00:10:18.266Z,0
2018-03-26T00:11:18.974Z,0
2018-03-26T00:12:18.387Z,0
2018-03-26T00:13:18.673Z,0
2018-03-26T00:14:18.706Z,0
2018-03-26T00:15:18.467Z,0
2018-03-26T00:16:18.425Z,0
2018-03-26T00:17:18.738Z,0
2018-03-26T00:18:18.595Z,0
2018-03-26T00:19:18.672Z,0
2018-03-26T00:20:18.585Z,0
2018-03-26T00:21:18.520Z,0
2018-03-26T00:22:18.548Z,0
2018-03-26T00:23:18.295Z,0
2018-03-26T00:24:18.206Z,0
2018-03-26T00:25:18.450Z,0
2018-03-26T00:26:18.230Z,0
2018-03-26T00:27:18.565Z,0
2018-03-26T00:28:17.896Z,0
2018-03-26T00:29:18.398Z,0
2018-03-26T00:30:18.367Z,0
2018-03-26T00:31:18.617Z,0
2018-03-26T00:32:18.078Z,0
2018-03-26T00:33:18.302Z,0
2018-03-26T00:34:18.015Z,0
2018-03-26T00:35:17.744Z,0
2018-03-26T00:36:18.019Z,0
2018-03-26T00:37:18.351Z,0
2018-03-26T00:38:18.357Z,0
2018-03-26T00:39:17.979Z,0
2018-03-26T00:40:17.662Z,0
2018-03-26T00:41:17.666Z,0
2018-03-26T00:42:17.955Z,0
2018-03-26T00:43:18.462Z,0
2018-03-26T00:44:18.453Z,0
2018-03-26T00:45:17.821Z,0
2018-03-26T00:46:18.414Z,0
2018-03-26T00:47:17.837Z,0
2018-03-26T00:48:18.044Z,0
2018-03-26T00:49:18.087Z,0
2018-03-26T00:50:17.731Z,0
2018-03-26T00:51:17.972Z,0
2018-03-26T00:52:17.964Z,0
2018-03-26T00:53:18.214Z,0
2018-03-26T00:54:17.389Z,0
2018-03-26T00:55:17.371Z,0
2018-03-26T00:56:18.153Z,0
2018-03-26T00:57:17.330Z,0
2018-03-26T00:58:17.581Z,0
2018-03-26T00:59:17.609Z,0
2018-03-26T01:00:17.888Z,0
2018-03-26T01:01:17.559Z,0
2018-03-26T01:02:17.581Z,0
2018-03-26T01:03:17.261Z,0
2018-03-26T01:04:17.273Z,0
2018-03-26T01:05:17.262Z,0
2018-03-26T01:06:17.782Z,0
2018-03-26T01:07:17.008Z,0
2018-03-26T01:08:17.709Z,0
2018-03-26T01:09:17.461Z,0
2018-03-26T01:10:17.187Z,0
2018-03-26T01:11:17.961Z,0
2018-03-26T01:12:17.631Z,0
2018-03-26T01:13:17.999Z,0
2018-03-26T01:14:17.557Z,0
2018-03-26T01:15:18.127Z,0
2018-03-26T01:16:17.625Z,0
2018-03-26T01:17:17.004Z,0
2018-03-26T01:18:17.543Z,0
2018-03-26T01:19:17.880Z,0
2018-03-26T01:20:17.264Z,0
2018-03-26T01:21:16.924Z,0
2018-03-26T01:22:17.187Z,0
2018-03-26T01:23:17.219Z,0
2018-03-26T01:24:17.139Z,0
2018-03-26T01:25:17.707Z,0
2018-03-26T01:26:16.884Z,0
2018-03-26T01:27:17.394Z,0
2018-03-26T01:28:17.141Z,0
2018-03-26T01:29:16.515Z,0
2018-03-26T01:30:17.008Z,0
2018-03-26T01:31:16.718Z,0
2018-03-26T01:32:16.963Z,0
2018-03-26T01:33:16.715Z,0
2018-03-26T01:34:16.723Z,0
2018-03-26T01:35:16.975Z,0
2018-03-26T01:36:17.167Z,0
2018-03-26T01:37:16.963Z,0
2018-03-26T01:38:16.353Z,0
2018-03-26T01:39:16.575Z,0
2018-03-26T01:40:17.164Z,0
2018-03-26T01:41:16.790Z,0
2018-03-26T01:42:16.779Z,0
2018-03-26T01:43:17.065Z,0
2018-03-26T01:44:17.101Z,0
2018-03-26T01:45:16.999Z,0
2018-03-26T01:46:16.546Z,0
2018-03-26T01:47:16.697Z,0
2018-03-26T01:48:16.710Z,0
2018-03-26T01:49:17.202Z,0
2018-03-26T01:50:17.268Z,0
2018-03-26T01:51:16.935Z,0
2018-03-26T01:52:16.694Z,0
2018-03-26T01:53:17.156Z,0
2018-03-26T01:54:16.437Z,0
2018-03-26T01:55:16.278Z,0
2018-03-26T01:56:16.819Z,0
2018-03-26T01:57:16.549Z,0
2018-03-26T01:58:15.965Z,0
2018-03-26T01:59:16.461Z,0
2018-03-26T02:00:16.496Z,0
2018-03-26T02:01:17.149Z,0
2018-03-26T02:02:16.683Z,0
2018-03-26T02:03:16.735Z,0
2018-03-26T02:04:16.532Z,0
2018-03-26T02:05:16.649Z,0
2018-03-26T02:06:16.063Z,0
2018-03-26T02:07:16.394Z,0
2018-03-26T02:08:16.862Z,0
2018-03-26T02:09:16.284Z,0
2018-03-26T02:10:16.525Z,0
2018-03-26T02:11:16.513Z,0
2018-03-26T02:12:15.975Z,0
2018-03-26T02:13:16.481Z,0
2018-03-26T02:14:16.192Z,0
2018-03-26T02:15:16.439Z,0
2018-03-26T02:16:16.430Z,0
2018-03-26T02:17:16.471Z,0
2018-03-26T02:18:15.864Z,0
2018-03-26T02:19:16.107Z,0
2018-03-26T02:20:15.538Z,0
2018-03-26T02:21:16.349Z,0
2018-03-26T02:22:16.304Z,0
2018-03-26T02:23:16.569Z,0
2018-03-26T02:24:16.541Z,0
2018-03-26T02:25:15.976Z,0
2018-03-26T02:26:16.239Z,0
2018-03-26T02:27:16.213Z,0
2018-03-26T02:28:15.921Z,0
2018-03-26T02:29:15.903Z,0
2018-03-26T02:30:16.161Z,0
2018-03-26T02:31:15.602Z,0
2018-03-26T02:32:15.588Z,0
2018-03-26T02:33:15.830Z,0
2018-03-26T02:34:16.111Z,0
2018-03-26T02:35:16.349Z,0
2018-03-26T02:36:15.803Z,0
2018-03-26T02:37:16.034Z,0
2018-03-26T02:38:15.760Z,0
2018-03-26T02:39:16.002Z,0
2018-03-26T02:40:16.261Z,0
2018-03-26T02:41:15.431Z,0
2018-03-26T02:42:15.655Z,0
2018-03-26T02:43:15.640Z,0
2018-03-26T02:44:15.734Z,0
2018-03-26T02:45:15.880Z,0
2018-03-26T02:46:15.954Z,0
2018-03-26T02:47:15.652Z,0
2018-03-26T02:48:15.573Z,0
2018-03-26T02:49:15.621Z,0
2018-03-26T02:50:15.520Z,0
2018-03-26T02:51:15.537Z,0
2018-03-26T02:52:15.765Z,0
2018-03-26T02:53:15.496Z,0
2018-03-26T02:54:15.709Z,0
2018-03-26T02:55:15.454Z,0
2018-03-26T02:56:15.675Z,0
2018-03-26T02:57:15.411Z,0
2018-03-26T02:58:15.671Z,0
2018-03-26T02:59:15.731Z,0
2018-03-26T03:00:15.651Z,0
2018-03-26T03:01:15.321Z,0
2018-03-26T03:02:15.815Z,0
2018-03-26T03:03:15.359Z,0
2018-03-26T03:04:14.982Z,0
2018-03-26T03:05:15.251Z,0
2018-03-26T03:06:15.226Z,0
2018-03-26T03:07:15.219Z,0
2018-03-26T03:08:15.449Z,0
2018-03-26T03:09:15.720Z,0
2018-03-26T03:10:15.666Z,0
2018-03-26T03:11:14.921Z,0
2018-03-26T03:12:15.412Z,0
2018-03-26T03:13:15.392Z,0
2018-03-26T03:14:15.069Z,0
2018-03-26T03:15:15.058Z,0
2018-03-26T03:16:14.763Z,0
2018-03-26T03:17:15.268Z,0
2018-03-26T03:18:15.256Z,0
2018-03-26T03:19:15.244Z,0
2018-03-26T03:20:14.951Z,0
2018-03-26T03:21:14.933Z,0
2018-03-26T03:22:14.923Z,0
2018-03-26T03:23:15.173Z,0
2018-03-26T03:24:14.714Z,0
2018-03-26T03:25:14.913Z,0
2018-03-26T03:26:15.114Z,0
2018-03-26T03:27:14.936Z,0
2018-03-26T03:28:14.984Z,0
2018-03-26T03:29:14.823Z,0
2018-03-26T03:30:15.126Z,0
2018-03-26T03:31:15.012Z,0
2018-03-26T03:32:14.678Z,0
2018-03-26T03:33:14.702Z,0
2018-03-26T03:34:14.684Z,0
2018-03-26T03:35:14.791Z,0
2018-03-26T03:36:14.797Z,0
2018-03-26T03:37:14.670Z,0
2018-03-26T03:38:14.339Z,0
2018-03-26T03:39:14.904Z,0
2018-03-26T03:40:14.893Z,0
2018-03-26T03:41:15.073Z,0
2018-03-26T03:42:14.538Z,0
2018-03-26T03:43:14.387Z,0
2018-03-26T03:44:14.614Z,0
2018-03-26T03:45:15.086Z,0
2018-03-26T03:46:14.181Z,0
2018-03-26T03:47:14.205Z,0
2018-03-26T03:48:14.204Z,0
2018-03-26T03:49:14.791Z,0
2018-03-26T03:50:14.196Z,0
2018-03-26T03:51:14.559Z,0
2018-03-26T03:52:14.434Z,0
2018-03-26T03:53:14.613Z,0
2018-03-26T03:54:14.931Z,0
2018-03-26T03:55:14.342Z,0
2018-03-26T03:56:14.534Z,0
2018-03-26T03:57:14.612Z,0
2018-03-26T03:58:14.229Z,0
2018-03-26T03:59:14.498Z,0
2018-03-26T04:00:14.030Z,0
2018-03-26T04:01:14.482Z,0
2018-03-26T04:02:14.698Z,0
2018-03-26T04:03:14.707Z,0
2018-03-26T04:04:14.375Z,0
2018-03-26T04:05:14.356Z,0
2018-03-26T04:06:14.530Z,0
2018-03-26T04:07:14.720Z,0
2018-03-26T04:08:13.534Z,0
2018-03-26T04:09:14.298Z,0
2018-03-26T04:10:14.041Z,0
2018-03-26T04:11:14.062Z,0
2018-03-26T04:12:14.322Z,0
2018-03-26T04:13:13.455Z,0
2018-03-26T04:14:14.050Z,0
2018-03-26T04:15:14.142Z,0
2018-03-26T04:16:13.347Z,0
2018-03-26T04:17:13.982Z,0
2018-03-26T04:18:13.569Z,0
2018-03-26T04:19:13.817Z,0
2018-03-26T04:20:13.803Z,0
2018-03-26T04:21:13.861Z,0
2018-03-26T04:22:14.329Z,0
2018-03-26T04:23:13.851Z,0
2018-03-26T04:24:13.291Z,0
2018-03-26T04:25:14.101Z,0
2018-03-26T04:26:14.142Z,0
2018-03-26T04:27:14.040Z,0
2018-03-26T04:28:13.644Z,0
2018-03-26T04:29:13.687Z,0
2018-03-26T04:30:13.180Z,0
2018-03-26T04:31:13.354Z,0
2018-03-26T04:32:14.213Z,0
2018-03-26T04:33:13.822Z,0
2018-03-26T04:34:13.794Z,0
2018-03-26T04:35:13.855Z,0
2018-03-26T04:36:13.502Z,0
2018-03-26T04:37:12.972Z,0
2018-03-26T04:38:13.478Z,0
2018-03-26T04:39:13.464Z,0
2018-03-26T04:40:13.208Z,0
2018-03-26T04:41:13.151Z,0
2018-03-26T04:42:13.103Z,0
2018-03-26T04:43:13.347Z,0
2018-03-26T04:44:13.625Z,0
2018-03-26T04:45:13.320Z,0
2018-03-26T04:46:13.295Z,0
2018-03-26T04:47:13.626Z,0
2018-03-26T04:48:13.517Z,0
2018-03-26T04:49:13.563Z,0
2018-03-26T04:50:13.473Z,0
2018-03-26T04:51:13.456Z,0
2018-03-26T04:52:13.436Z,0
2018-03-26T04:53:13.502Z,0
2018-03-26T04:54:13.674Z,0
2018-03-26T04:55:13.586Z,0
2018-03-26T04:56:13.627Z,0
2018-03-26T04:57:13.064Z,0
2018-03-26T04:58:13.653Z,0
2018-03-26T04:59:13.786Z,0
2018-03-26T05:00:13.004Z,0
2018-03-26T05:01:12.752Z,0
2018-03-26T05:02:13.297Z,0
2018-03-26T05:03:13.633Z,0
2018-03-26T05:04:13.351Z,0
2018-03-26T05:05:13.352Z,0
2018-03-26T05:06:13.449Z,0
2018-03-26T05:07:13.462Z,0
2018-03-26T05:08:13.189Z,0
2018-03-26T05:09:12.304Z,0
2018-03-26T05:10:13.380Z,0
2018-03-26T05:11:12.828Z,0
2018-03-26T05:12:12.819Z,0
2018-03-26T05:13:12.776Z,0
2018-03-26T05:14:13.053Z,0
2018-03-26T05:15:12.986Z,0
2018-03-26T05:16:12.472Z,0
2018-03-26T05:17:12.963Z,0
2018-03-26T05:18:12.937Z,0
2018-03-26T05:19:12.912Z,0
2018-03-26T05:20:12.882Z,0
2018-03-26T05:21:12.857Z,0
2018-03-26T05:22:12.580Z,0
2018-03-26T05:23:12.282Z,0
2018-03-26T05:24:12.817Z,0
2018-03-26T05:25:12.566Z,0
2018-03-26T05:26:12.780Z,0
2018-03-26T05:27:12.739Z,0
2018-03-26T05:28:12.460Z,0
2018-03-26T05:29:12.434Z,0
2018-03-26T05:30:12.154Z,0
2018-03-26T05:31:12.519Z,5
2018-03-26T05:32:13.072Z,5
2018-03-26T05:33:12.980Z,5
2018-03-26T05:34:12.624Z,5
2018-03-26T05:35:12.589Z,5
2018-03-26T05:36:12.077Z,5
2018-03-26T05:37:12.559Z,5
2018-03-26T05:38:12.841Z,5
2018-03-26T05:39:12.297Z,5
2018-03-26T05:40:12.494Z,5
2018-03-26T05:41:11.673Z,5
2018-03-26T05:42:12.222Z,5
2018-03-26T05:43:12.502Z,5
2018-03-26T05:44:12.489Z,5
2018-03-26T05:45:12.124Z,5
2018-03-26T05:46:12.325Z,10
2018-03-26T05:47:12.090Z,10
2018-03-26T05:48:12.073Z,10
2018-03-26T05:49:12.049Z,10
2018-03-26T05:50:12.038Z,15
2018-03-26T05:51:12.017Z,15
2018-03-26T05:52:12.322Z,15
2018-03-26T05:53:11.710Z,15
2018-03-26T05:54:11.966Z,15
2018-03-26T05:55:12.288Z,15
2018-03-26T05:56:12.221Z,10
2018-03-26T05:57:12.255Z,10
2018-03-26T05:58:12.211Z,10
2018-03-26T05:59:11.969Z,10
2018-03-26T06:00:11.916Z,10
2018-03-26T06:01:11.867Z,15
2018-03-26T06:02:12.486Z,15
2018-03-26T06:03:12.359Z,15
2018-03-26T06:04:11.538Z,15
2018-03-26T06:05:11.572Z,15
2018-03-26T06:06:11.788Z,20
2018-03-26T06:07:12.212Z,20
2018-03-26T06:08:12.028Z,20
2018-03-26T06:09:11.738Z,20
2018-03-26T06:10:11.721Z,20
2018-03-26T06:11:11.358Z,20
2018-03-26T06:12:11.613Z,20
2018-03-26T06:13:11.414Z,25
2018-03-26T06:14:11.599Z,25
2018-03-26T06:15:11.549Z,25
2018-03-26T06:16:11.592Z,25
2018-03-26T06:17:11.643Z,30
2018-03-26T06:18:11.075Z,30
2018-03-26T06:19:11.509Z,30
2018-03-26T06:20:11.282Z,30
2018-03-26T06:21:11.720Z,30
2018-03-26T06:22:11.296Z,30
2018-03-26T06:23:11.678Z,30
2018-03-26T06:24:11.172Z,30
2018-03-26T06:25:11.619Z,35
2018-03-26T06:26:11.907Z,35
2018-03-26T06:27:11.321Z,35
2018-03-26T06:28:11.605Z,35
2018-03-26T06:29:11.546Z,40
2018-03-26T06:30:11.547Z,40
2018-03-26T06:31:11.248Z,45
2018-03-26T06:32:11.220Z,50
2018-03-26T06:33:11.462Z,50
2018-03-26T06:34:11.183Z,55
2018-03-26T06:35:11.427Z,50
2018-03-26T06:36:11.494Z,45
2018-03-26T06:37:11.163Z,45
2018-03-26T06:38:11.536Z,45
2018-03-26T06:39:11.122Z,45
2018-03-26T06:40:11.088Z,50
2018-03-26T06:41:11.593Z,50
2018-03-26T06:42:11.024Z,45
2018-03-26T06:43:10.743Z,45
2018-03-26T06:44:10.905Z,45
2018-03-26T06:45:11.339Z,50
2018-03-26T06:46:11.283Z,50
2018-03-26T06:47:11.539Z,50
2018-03-26T06:48:10.918Z,50
2018-03-26T06:49:10.951Z,55
2018-03-26T06:50:10.427Z,60
2018-03-26T06:51:11.122Z,65
2018-03-26T06:52:10.932Z,65
2018-03-26T06:53:11.125Z,75
2018-03-26T06:54:10.860Z,75
2018-03-26T06:55:10.871Z,70
2018-03-26T06:56:10.799Z,70
2018-03-26T06:57:10.508Z,70
2018-03-26T06:58:10.986Z,75
2018-03-26T06:59:10.710Z,85
2018-03-26T07:00:11.053Z,90
2018-03-26T07:01:10.661Z,100
2018-03-26T07:02:10.636Z,105
2018-03-26T07:03:10.627Z,105
2018-03-26T07:04:10.344Z,110
2018-03-26T07:05:10.600Z,110
2018-03-26T07:06:10.573Z,110
2018-03-26T07:07:10.278Z,110
2018-03-26T07:08:09.993Z,110
2018-03-26T07:09:10.786Z,115
2018-03-26T07:10:10.772Z,120
2018-03-26T07:11:10.751Z,120
2018-03-26T07:12:10.457Z,125
2018-03-26T07:13:10.182Z,125
2018-03-26T07:14:10.904Z,120
2018-03-26T07:15:10.403Z,115
2018-03-26T07:16:10.651Z,115
2018-03-26T07:17:10.960Z,115
2018-03-26T07:18:10.862Z,120
2018-03-26T07:19:10.673Z,120
2018-03-26T07:20:10.301Z,120
2018-03-26T07:21:09.763Z,120
2018-03-26T07:22:10.271Z,125
2018-03-26T07:23:10.323Z,125
2018-03-26T07:24:10.238Z,135
2018-03-26T07:25:10.476Z,145
2018-03-26T07:26:10.169Z,155
2018-03-26T07:27:10.498Z,170
2018-03-26T07:28:10.468Z,175
2018-03-26T07:29:10.134Z,170
2018-03-26T07:30:09.984Z,165
2018-03-26T07:31:10.383Z,165
2018-03-26T07:32:10.084Z,160
2018-03-26T07:33:10.618Z,160
2018-03-26T07:34:09.520Z,165
2018-03-26T07:35:09.587Z,175
2018-03-26T07:36:10.032Z,180
2018-03-26T07:37:10.255Z,195
2018-03-26T07:38:09.977Z,200
2018-03-26T07:39:10.226Z,200
2018-03-26T07:40:10.570Z,200
2018-03-26T07:41:09.962Z,200
2018-03-26T07:42:10.031Z,205
2018-03-26T07:43:10.201Z,205
2018-03-26T07:44:10.136Z,205
2018-03-26T07:45:09.589Z,210
2018-03-26T07:46:09.300Z,205
2018-03-26T07:47:09.825Z,205
2018-03-26T07:48:10.367Z,210
2018-03-26T07:49:10.201Z,210
2018-03-26T07:50:09.376Z,215
2018-03-26T07:51:09.796Z,220
2018-03-26T07:52:09.597Z,225
2018-03-26T07:53:10.118Z,235
2018-03-26T07:54:10.016Z,240
2018-03-26T07:55:10.267Z,235
2018-03-26T07:56:10.204Z,235
2018-03-26T07:57:10.335Z,230
2018-03-26T07:58:09.652Z,225
2018-03-26T07:59:09.875Z,225
2018-03-26T08:00:09.347Z,230
2018-03-26T08:01:09.575Z,230
2018-03-26T08:02:10.106Z,225
2018-03-26T08:03:09.881Z,225
2018-03-26T08:04:09.829Z,235
2018-03-26T08:05:09.597Z,245
2018-03-26T08:06:10.073Z,245
2018-03-26T08:07:09.482Z,240
2018-03-26T08:08:09.516Z,240
2018-03-26T08:09:09.935Z,225
2018-03-26T08:10:09.812Z,230
2018-03-26T08:11:09.413Z,240
2018-03-26T08:12:09.706Z,245
2018-03-26T08:13:09.663Z,240
2018-03-26T08:14:09.903Z,240
2018-03-26T08:15:09.955Z,245
2018-03-26T08:16:09.331Z,250
2018-03-26T08:17:09.654Z,235
2018-03-26T08:18:09.364Z,285
2018-03-26T08:19:09.592Z,280
2018-03-26T08:20:09.279Z,245
2018-03-26T08:21:09.030Z,385
2018-03-26T08:22:08.994Z,815
2018-03-26T08:23:08.965Z,870
2018-03-26T08:24:09.245Z,825
2018-03-26T08:25:09.198Z,925
2018-03-26T08:26:09.582Z,945
2018-03-26T08:27:09.161Z,905
2018-03-26T08:28:08.878Z,965
2018-03-26T08:29:09.134Z,960
2018-03-26T08:30:09.113Z,600
2018-03-26T08:31:09.128Z,410
2018-03-26T08:32:09.365Z,470
2018-03-26T08:33:09.085Z,770
2018-03-26T08:34:09.065Z,890
2018-03-26T08:35:09.112Z,775
2018-03-26T08:36:09.104Z,705
2018-03-26T08:37:08.881Z,665
2018-03-26T08:38:09.026Z,730
2018-03-26T08:39:09.105Z,600
2018-03-26T08:40:09.004Z,685
2018-03-26T08:41:09.008Z,730
2018-03-26T08:42:09.344Z,870
2018-03-26T08:43:09.625Z,830
2018-03-26T08:44:08.982Z,720
2018-03-26T08:45:09.215Z,510
2018-03-26T08:46:09.216Z,425
2018-03-26T08:47:08.666Z,560
2018-03-26T08:48:08.939Z,655
2018-03-26T08:49:08.916Z,695
2018-03-26T08:50:09.370Z,655
2018-03-26T08:51:08.640Z,715
2018-03-26T08:52:09.167Z,755
2018-03-26T08:53:09.219Z,795
2018-03-26T08:54:09.151Z,730
2018-03-26T08:55:09.138Z,745
2018-03-26T08:56:08.585Z,960
2018-03-26T08:57:08.312Z,1115
2018-03-26T08:58:08.830Z,1040
2018-03-26T08:59:09.112Z,1045
2018-03-26T09:00:08.827Z,1000
2018-03-26T09:01:08.824Z,940
2018-03-26T09:02:08.803Z,820
2018-03-26T09:03:09.076Z,965
2018-03-26T09:04:08.545Z,730
2018-03-26T09:05:08.792Z,805
2018-03-26T09:06:08.521Z,830
2018-03-26T09:07:08.763Z,410
2018-03-26T09:08:08.556Z,375
2018-03-26T09:09:09.033Z,660
2018-03-26T09:10:09.029Z,1030
2018-03-26T09:11:08.474Z,1150
2018-03-26T09:12:08.815Z,695
2018-03-26T09:13:09.013Z,630
2018-03-26T09:14:08.725Z,805
2018-03-26T09:15:08.732Z,830
2018-03-26T09:16:08.708Z,555
2018-03-26T09:17:08.713Z,415
2018-03-26T09:18:09.044Z,480
2018-03-26T09:19:08.156Z,495
2018-03-26T09:20:08.708Z,550
2018-03-26T09:21:08.719Z,715
2018-03-26T09:22:09.005Z,1005
2018-03-26T09:23:08.713Z,1030
2018-03-26T09:24:08.716Z,1010
2018-03-26T09:25:08.382Z,970
2018-03-26T09:26:08.700Z,770
2018-03-26T09:27:08.895Z,415
2018-03-26T09:28:08.883Z,345
2018-03-26T09:29:08.623Z,710
2018-03-26T09:30:09.336Z,940
2018-03-26T09:31:09.163Z,685
2018-03-26T09:32:08.582Z,625
2018-03-26T09:33:09.172Z,610
2018-03-26T09:34:08.858Z,660
2018-03-26T09:35:08.034Z,760
2018-03-26T09:36:09.202Z,440
2018-03-26T09:37:09.087Z,510
2018-03-26T09:38:08.374Z,800
2018-03-26T09:39:08.811Z,1035
2018-03-26T09:40:08.810Z,760
2018-03-26T09:41:08.784Z,505
2018-03-26T09:42:08.252Z,660
2018-03-26T09:43:09.112Z,955
2018-03-26T09:44:08.230Z,730
2018-03-26T09:45:08.766Z,360
2018-03-26T09:46:08.748Z,300
2018-03-26T09:47:09.023Z,405
2018-03-26T09:48:08.201Z,420
2018-03-26T09:49:08.792Z,590
2018-03-26T09:50:08.710Z,745
2018-03-26T09:51:08.462Z,735
2018-03-26T09:52:08.435Z,665
2018-03-26T09:53:08.430Z,625
2018-03-26T09:54:08.418Z,855
2018-03-26T09:55:08.401Z,960
2018-03-26T09:56:08.464Z,980
2018-03-26T09:57:08.131Z,1075
2018-03-26T09:58:08.920Z,905
2018-03-26T09:59:08.110Z,835
2018-03-26T10:00:08.094Z,535
2018-03-26T10:01:08.625Z,515
2018-03-26T10:02:08.563Z,520
2018-03-26T10:03:08.086Z,540
2018-03-26T10:04:08.339Z,545
2018-03-26T10:05:08.628Z,600
2018-03-26T10:06:08.055Z,480
2018-03-26T10:07:08.319Z,490
2018-03-26T10:08:08.040Z,705
2018-03-26T10:09:08.037Z,830
2018-03-26T10:10:08.292Z,885
2018-03-26T10:11:08.559Z,935
2018-03-26T10:12:08.551Z,1245
2018-03-26T10:13:08.261Z,1420
2018-03-26T10:14:08.490Z,905
2018-03-26T10:15:07.983Z,610
2018-03-26T10:16:07.976Z,455
2018-03-26T10:17:08.503Z,470
2018-03-26T10:18:08.249Z,765
2018-03-26T10:19:08.288Z,1315
2018-03-26T10:20:08.254Z,1415
2018-03-26T10:21:08.745Z,1275
2018-03-26T10:22:08.227Z,1320
2018-03-26T10:23:07.929Z,1175
2018-03-26T10:24:08.777Z,850
2018-03-26T10:25:08.448Z,690
2018-03-26T10:26:08.170Z,700
2018-03-26T10:27:08.447Z,965
2018-03-26T10:28:08.453Z,990
2018-03-26T10:29:08.191Z,875
2018-03-26T10:30:07.888Z,880
2018-03-26T10:31:08.283Z,880
2018-03-26T10:32:08.153Z,920
2018-03-26T10:33:08.407Z,1050
2018-03-26T10:34:07.878Z,1055
2018-03-26T10:35:07.862Z,1265
2018-03-26T10:36:08.379Z,1420
2018-03-26T10:37:08.443Z,1335
2018-03-26T10:38:08.152Z,745
2018-03-26T10:39:08.470Z,355
2018-03-26T10:40:08.373Z,750
2018-03-26T10:41:08.646Z,1370
2018-03-26T10:42:08.085Z,1480
2018-03-26T10:43:08.090Z,1410
2018-03-26T10:44:08.637Z,1255
2018-03-26T10:45:08.401Z,1065
2018-03-26T10:46:08.066Z,915
2018-03-26T10:47:08.327Z,865
2018-03-26T10:48:08.622Z,895
2018-03-26T10:49:08.787Z,770
2018-03-26T10:50:08.139Z,685
2018-03-26T10:51:08.016Z,855
2018-03-26T10:52:08.516Z,945
2018-03-26T10:53:08.672Z,905
2018-03-26T10:54:08.345Z,875
2018-03-26T10:55:08.383Z,1075
2018-03-26T10:56:08.099Z,1170
2018-03-26T10:57:07.742Z,1205
2018-03-26T10:58:08.334Z,1290
2018-03-26T10:59:08.064Z,1280
2018-03-26T11:00:07.997Z,1450
2018-03-26T11:01:08.621Z,330
2018-03-26T11:02:07.990Z,440
2018-03-26T11:03:08.085Z,1205
2018-03-26T11:04:07.752Z,1250
2018-03-26T11:05:08.032Z,775
2018-03-26T11:06:07.750Z,1150
2018-03-26T11:07:07.973Z,1030
2018-03-26T11:08:07.701Z,445
2018-03-26T11:09:08.136Z,320
2018-03-26T11:10:08.083Z,1415
2018-03-26T11:11:07.802Z,1635
2018-03-26T11:12:08.335Z,1700
2018-03-26T11:13:08.183Z,1640
2018-03-26T11:14:07.976Z,1100
2018-03-26T11:15:08.324Z,1220
2018-03-26T11:16:07.965Z,1210
2018-03-26T11:17:08.264Z,1275
2018-03-26T11:18:08.332Z,1540
2018-03-26T11:19:08.280Z,1610
2018-03-26T11:20:07.921Z,1525
2018-03-26T11:21:07.963Z,410
2018-03-26T11:22:08.332Z,1585
2018-03-26T11:23:08.273Z,1455
2018-03-26T11:24:07.959Z,1415
2018-03-26T11:25:08.190Z,1455
2018-03-26T11:26:08.296Z,1545
2018-03-26T11:27:07.949Z,1640
2018-03-26T11:28:08.300Z,1595
2018-03-26T11:29:08.290Z,1510
2018-03-26T11:30:08.457Z,1400
2018-03-26T11:31:08.177Z,1300
2018-03-26T11:32:08.038Z,1185
2018-03-26T11:33:07.898Z,1000
2018-03-26T11:34:07.956Z,835
2018-03-26T11:35:07.896Z,860
2018-03-26T11:36:08.264Z,890
2018-03-26T11:37:07.989Z,740
2018-03-26T11:38:07.892Z,740
2018-03-26T11:39:08.171Z,770
2018-03-26T11:40:08.428Z,760
2018-03-26T11:41:08.422Z,740
2018-03-26T11:42:08.533Z,635
2018-03-26T11:43:07.978Z,650
2018-03-26T11:44:07.761Z,830
2018-03-26T11:45:07.652Z,530
2018-03-26T11:46:07.966Z,390
2018-03-26T11:47:07.918Z,370
2018-03-26T11:48:08.165Z,380
2018-03-26T11:49:07.930Z,400
2018-03-26T11:50:08.128Z,445
2018-03-26T11:51:07.589Z,1045
2018-03-26T11:52:07.854Z,1135
2018-03-26T11:53:08.444Z,1100
2018-03-26T11:54:07.575Z,1100
2018-03-26T11:55:07.839Z,920
2018-03-26T11:56:07.838Z,1080
2018-03-26T11:57:07.298Z,1135
2018-03-26T11:58:08.088Z,1075
2018-03-26T11:59:07.815Z,1145
2018-03-26T12:00:08.099Z,1155
2018-03-26T12:01:07.808Z,540
2018-03-26T12:02:08.108Z,1275
2018-03-26T12:03:08.075Z,1225
2018-03-26T12:04:07.801Z,1305
2018-03-26T12:05:07.806Z,1290
2018-03-26T12:06:07.260Z,1295
2018-03-26T12:07:08.061Z,1070
2018-03-26T12:08:08.308Z,1220
2018-03-26T12:09:07.778Z,445
2018-03-26T12:10:07.835Z,485
2018-03-26T12:11:07.765Z,1255
2018-03-26T12:12:08.036Z,1255
2018-03-26T12:13:07.810Z,1265
2018-03-26T12:14:07.760Z,1210
2018-03-26T12:15:07.552Z,1175
2018-03-26T12:16:08.279Z,1235
2018-03-26T12:17:08.286Z,1295
2018-03-26T12:18:07.487Z,1330
2018-03-26T12:19:08.021Z,1385
2018-03-26T12:20:08.263Z,1360
2018-03-26T12:21:07.465Z,1330
2018-03-26T12:22:07.997Z,1270
2018-03-26T12:23:07.729Z,1145
2018-03-26T12:24:07.735Z,1290
2018-03-26T12:25:07.723Z,1375
2018-03-26T12:26:07.447Z,1350
2018-03-26T12:27:08.257Z,1400
2018-03-26T12:28:08.259Z,1470
2018-03-26T12:29:07.457Z,1350
2018-03-26T12:30:07.177Z,1415
2018-03-26T12:31:07.725Z,1460
2018-03-26T12:32:08.242Z,1110
2018-03-26T12:33:08.236Z,955
2018-03-26T12:34:07.710Z,425
2018-03-26T12:35:07.433Z,405
2018-03-26T12:36:07.967Z,445
2018-03-26T12:37:07.725Z,1175
2018-03-26T12:38:07.967Z,1115
2018-03-26T12:39:07.958Z,1245
2018-03-26T12:40:08.026Z,1230
2018-03-26T12:41:07.425Z,1335
2018-03-26T12:42:07.954Z,1415
2018-03-26T12:43:07.691Z,1235
2018-03-26T12:44:07.694Z,1215
2018-03-26T12:45:07.150Z,1175
2018-03-26T12:46:07.415Z,965
2018-03-26T12:47:07.680Z,945
2018-03-26T12:48:07.671Z,1135
2018-03-26T12:49:08.206Z,1265
2018-03-26T12:50:07.399Z,1210
2018-03-26T12:51:07.669Z,1200
2018-03-26T12:52:08.193Z,1220
2018-03-26T12:53:07.406Z,1090
2018-03-26T12:54:07.661Z,1285
2018-03-26T12:55:07.660Z,1380
2018-03-26T12:56:07.706Z,1380
2018-03-26T12:57:07.664Z,1405
2018-03-26T12:58:07.923Z,1610
2018-03-26T12:59:07.660Z,1520
2018-03-26T13:00:08.062Z,1630
2018-03-26T13:01:07.925Z,1720
2018-03-26T13:02:07.655Z,1805
2018-03-26T13:03:07.655Z,1625
2018-03-26T13:04:07.926Z,1315
2018-03-26T13:05:07.975Z,1290
2018-03-26T13:06:07.656Z,1265
2018-03-26T13:07:07.917Z,1360
2018-03-26T13:08:07.923Z,1515
2018-03-26T13:09:07.923Z,1640
2018-03-26T13:10:07.923Z,1635
2018-03-26T13:11:07.651Z,1510
2018-03-26T13:12:08.181Z,1320
2018-03-26T13:13:08.177Z,1275
2018-03-26T13:14:07.917Z,1235
2018-03-26T13:15:07.126Z,1350
2018-03-26T13:16:07.387Z,1255
2018-03-26T13:17:07.924Z,1255
2018-03-26T13:18:07.654Z,1130
2018-03-26T13:19:07.674Z,1290
2018-03-26T13:20:07.660Z,1285
2018-03-26T13:21:07.392Z,1245
2018-03-26T13:22:07.652Z,1315
2018-03-26T13:23:07.664Z,1370
2018-03-26T13:24:07.661Z,1385
2018-03-26T13:25:07.667Z,1310
2018-03-26T13:26:07.662Z,1080
2018-03-26T13:27:07.919Z,1115
2018-03-26T13:28:07.670Z,1120
2018-03-26T13:29:07.936Z,1105
2018-03-26T13:30:07.922Z,1020
2018-03-26T13:31:07.667Z,985
2018-03-26T13:32:07.665Z,1145
2018-03-26T13:33:07.651Z,1370
2018-03-26T13:34:07.654Z,1465
2018-03-26T13:35:07.387Z,1235
2018-03-26T13:36:07.393Z,1210
2018-03-26T13:37:07.912Z,1300
2018-03-26T13:38:07.388Z,1160
2018-03-26T13:39:07.920Z,1230
2018-03-26T13:40:07.394Z,1155
2018-03-26T13:41:07.669Z,1085
2018-03-26T13:42:07.386Z,1025
2018-03-26T13:43:07.676Z,1235
2018-03-26T13:44:07.399Z,1245
2018-03-26T13:45:07.652Z,1225
2018-03-26T13:46:07.383Z,1290
2018-03-26T13:47:07.663Z,1240
2018-03-26T13:48:07.390Z,1120
2018-03-26T13:49:07.709Z,1125
2018-03-26T13:50:07.403Z,1165
2018-03-26T13:51:07.434Z,1190
2018-03-26T13:52:07.928Z,1195
2018-03-26T13:53:07.918Z,1210
2018-03-26T13:54:07.386Z,1255
2018-03-26T13:55:07.917Z,1350
2018-03-26T13:56:07.651Z,1335
2018-03-26T13:57:07.656Z,1285
2018-03-26T13:58:07.650Z,1285
2018-03-26T13:59:07.938Z,1170
2018-03-26T14:00:07.409Z,1125
2018-03-26T14:01:07.661Z,910
2018-03-26T14:02:07.864Z,915
2018-03-26T14:03:07.676Z,1035
2018-03-26T14:04:07.930Z,1085
2018-03-26T14:05:07.402Z,1260
2018-03-26T14:06:07.668Z,1175